createdAt,value
2023-04-19T06:20:59.313Z,1021.20
2023-04-19T06:30:58.221Z,1021.13
2023-04-19T06:40:58.188Z,1021.14
2023-04-19T06:50:58.430Z,1021.16
2023-04-19T07:00:58.290Z,1021.02
2023-04-19T07:10:58.271Z,1020.75
2023-04-19T07:20:58.221Z,1020.90
2023-04-19T07:30:58.230Z,1020.64
2023-04-19T07:40:58.287Z,1020.49
2023-04-19T07:50:58.208Z,1020.33
2023-04-19T08:00:58.421Z,1020.39
2023-04-19T08:11:00.132Z,1020.28
2023-04-19T08:20:58.390Z,1020.15
2023-04-19T08:30:58.412Z,1020.14
2023-04-19T08:40:58.307Z,1019.91
2023-04-19T08:51:05.145Z,1019.84
2023-04-19T09:00:58.341Z,1019.82
2023-04-19T09:10:58.278Z,1019.74
2023-04-19T09:20:58.611Z,1019.37
2023-04-19T09:31:10.628Z,1019.13
2023-04-19T09:40:58.527Z,1019.20
2023-04-19T09:51:02.400Z,1018.91
2023-04-19T10:01:10.805Z,1018.52
2023-04-19T10:10:59.263Z,1018.40
2023-04-19T10:20:58.450Z,1018.21
2023-04-19T10:30:58.351Z,1018.12
2023-04-19T10:40:58.341Z,1018.11
2023-04-19T10:50:58.411Z,1017.81
2023-04-19T11:00:58.559Z,1017.74
2023-04-19T11:10:58.472Z,1017.72
2023-04-19T11:20:58.560Z,1017.72
2023-04-19T11:30:58.527Z,1017.34
2023-04-19T11:40:58.344Z,1017.41
2023-04-19T11:50:58.327Z,1017.28
2023-04-19T12:00:58.501Z,1017.27
2023-04-19T12:10:58.333Z,1017.06
2023-04-19T12:21:00.852Z,1016.81
2023-04-19T12:30:58.352Z,1017.20
2023-04-19T12:40:58.307Z,1016.93
2023-04-19T12:50:58.425Z,1016.79
2023-04-19T13:00:58.354Z,1016.87
2023-04-19T13:10:58.503Z,1016.68
2023-04-19T13:20:58.535Z,1016.83
2023-04-19T13:30:58.756Z,1016.50
2023-04-19T13:40:58.480Z,1016.54
2023-04-19T13:50:58.541Z,1016.62
2023-04-19T14:00:58.555Z,1016.55
2023-04-19T14:10:58.460Z,1016.35
2023-04-19T14:20:58.514Z,1016.32
2023-04-19T14:30:58.516Z,1016.18
2023-04-19T14:40:58.398Z,1016.10
2023-04-19T14:50:58.424Z,1015.90
2023-04-19T15:00:58.740Z,1015.79
2023-04-19T15:10:58.465Z,1015.82
2023-04-19T15:20:58.463Z,1015.70
2023-04-19T15:30:58.592Z,1015.62
2023-04-19T15:40:58.658Z,1015.68
2023-04-19T15:50:58.602Z,1015.48
2023-04-19T16:00:58.514Z,1015.59
2023-04-19T16:10:58.565Z,1015.49
2023-04-19T16:20:58.600Z,1015.54
2023-04-19T16:30:58.494Z,1015.49
2023-04-19T16:40:58.832Z,1015.33
2023-04-19T16:50:58.627Z,1015.44
2023-04-19T17:00:58.900Z,1015.38
2023-04-19T17:10:58.825Z,1015.51
2023-04-19T17:20:58.759Z,1015.48
2023-04-19T17:30:58.756Z,1015.43
2023-04-19T17:40:58.758Z,1015.54
2023-04-19T17:50:58.942Z,1015.33
2023-04-19T18:00:58.867Z,1015.38
2023-04-19T18:10:59.018Z,1015.53
2023-04-19T18:20:58.864Z,1015.61
2023-04-19T18:30:58.816Z,1015.78
2023-04-19T18:40:59.113Z,1015.73
2023-04-19T18:50:59.446Z,1015.78
2023-04-19T19:00:59.028Z,1016.01
2023-04-19T19:20:59.470Z,1016.35
